PWSweather.com
Personal Weather Stations
Station Observations
SHAHALMS1
Eftra, Falkenberg, HA

EftraFalkenberg, HA

Lat: 56.85, Lon: 12.65

Elevation: 140

Station Type:

http://hem.passagen.se/risarp101

High Low Average
Temperature 42.1°F5.6°C 37.0°F2.8°C 40.0°F4.4°C
Dew Point 39.9°F4.4°C 25.5°F-3.6°C 33.9°F1.1°C
Winds 16.8 mph 27.0 kmh 6.8 mph 10.9 kmh 12.0 mph WSW19.3 kmh WSW
Wind Gusts 50.1 mph80.6 kmh 13.6 mph21.9 kmh 26.0 mph41.8 kmh
Humidity 95% 55% 80%
Pressure 29.65 in1004.1 mb 29.00 in982.1 mb -
Precipitation 0.26 in6.6 mm - -
Hour Temp Dew Point Humidity Winds Wind Gusts Pressure Precip Precip Rate Daily Precip Total
12:00 AM 41.4°F5.2°C 36.9°F2.7°C 84% 9.5 mph S15.3 kmh S 20.4 mph32.8 kmh 29.18 in988.1 mb 0.00 in0.0 mm 0.00 in0.0 mm 0.00 in0.0 mm
12:15 AM 41.4°F5.2°C 36.9°F2.7°C 84% 9.7 mph S15.6 kmh S 24.3 mph39.1 kmh 29.15 in987.1 mb 0.00 in0.0 mm 0.00 in0.0 mm 0.00 in0.0 mm
12:31 AM 41.0°F5.0°C 36.2°F2.3°C 83% 11.0 mph S17.7 kmh S 23.3 mph37.5 kmh 29.15 in987.1 mb 0.00 in0.0 mm 0.00 in0.0 mm 0.00 in0.0 mm
12:45 AM 41.0°F5.0°C 36.5°F2.5°C 84% 11.3 mph S18.2 kmh S 30.1 mph48.4 kmh 29.15 in987.1 mb 0.00 in0.0 mm 0.00 in0.0 mm 0.00 in0.0 mm
01:00 AM 40.8°F4.9°C 36.4°F2.4°C 84% 10.8 mph S17.4 kmh S 24.3 mph39.1 kmh 29.12 in986.1 mb 0.00 in0.0 mm 0.00 in0.0 mm 0.00 in0.0 mm
01:15 AM 40.6°F4.8°C 36.8°F2.7°C 86% 7.5 mph S12.1 kmh S 20.8 mph33.5 kmh 29.12 in986.1 mb 0.00 in0.0 mm 0.00 in0.0 mm 0.00 in0.0 mm
01:30 AM 40.8°F4.9°C 37.3°F2.9°C 87% 8.0 mph S12.9 kmh S 19.0 mph30.6 kmh 29.12 in986.1 mb 0.00 in0.0 mm 0.00 in0.0 mm 0.00 in0.0 mm
01:45 AM 41.0°F5.0°C 37.4°F3.0°C 87% 9.5 mph S15.3 kmh S 21.1 mph34.0 kmh 29.09 in985.1 mb 0.00 in0.0 mm 0.00 in0.0 mm 0.00 in0.0 mm
02:00 AM 41.2°F5.1°C 37.0°F2.8°C 85% 11.9 mph S19.2 kmh S 27.9 mph44.9 kmh 29.09 in985.1 mb 0.00 in0.0 mm 0.00 in0.0 mm 0.00 in0.0 mm
02:15 AM 41.2°F5.1°C 37.0°F2.8°C 85% 10.9 mph S17.5 kmh S 24.7 mph39.8 kmh 29.12 in986.1 mb 0.00 in0.0 mm 0.00 in0.0 mm 0.00 in0.0 mm
02:30 AM 41.4°F5.2°C 37.2°F2.9°C 85% 10.9 mph S17.5 kmh S 28.3 mph45.5 kmh 29.12 in986.1 mb 0.00 in0.0 mm 0.00 in0.0 mm 0.00 in0.0 mm
02:45 AM 41.4°F5.2°C 37.2°F2.9°C 85% 10.0 mph S16.1 kmh S 25.8 mph41.5 kmh 29.09 in985.1 mb 0.00 in0.0 mm 0.00 in0.0 mm 0.00 in0.0 mm
03:00 AM 41.5°F5.3°C 37.1°F2.8°C 84% 11.1 mph S17.9 kmh S 28.3 mph45.5 kmh 29.09 in985.1 mb 0.00 in0.0 mm 0.00 in0.0 mm 0.00 in0.0 mm
03:15 AM 41.4°F5.2°C 37.5°F3.1°C 86% 10.3 mph S16.6 kmh S 27.6 mph44.4 kmh 29.09 in985.1 mb 0.00 in0.0 mm 0.00 in0.0 mm 0.00 in0.0 mm
03:30 AM 41.4°F5.2°C 37.5°F3.1°C 86% 8.3 mph S13.4 kmh S 16.8 mph27.0 kmh 29.06 in984.1 mb 0.00 in0.0 mm 0.00 in0.0 mm 0.00 in0.0 mm
03:45 AM 41.5°F5.3°C 37.4°F3.0°C 85% 10.2 mph S16.4 kmh S 27.9 mph44.9 kmh 29.06 in984.1 mb 0.00 in0.0 mm 0.00 in0.0 mm 0.00 in0.0 mm
04:00 AM 41.5°F5.3°C 37.4°F3.0°C 85% 11.1 mph S17.9 kmh S 32.6 mph52.5 kmh 29.09 in985.1 mb 0.00 in0.0 mm 0.00 in0.0 mm 0.00 in0.0 mm
04:15 AM 41.5°F5.3°C 37.4°F3.0°C 85% 8.8 mph S14.2 kmh S 23.3 mph37.5 kmh 29.06 in984.1 mb 0.00 in0.0 mm 0.00 in0.0 mm 0.00 in0.0 mm
04:30 AM 41.5°F5.3°C 37.4°F3.0°C 85% 11.4 mph SSW18.3 kmh SSW 24.3 mph39.1 kmh 29.06 in984.1 mb 0.00 in0.0 mm 0.00 in0.0 mm 0.00 in0.0 mm
04:45 AM 41.4°F5.2°C 37.5°F3.1°C 86% 10.4 mph SSW16.7 kmh SSW 27.9 mph44.9 kmh 29.06 in984.1 mb 0.00 in0.0 mm 0.00 in0.0 mm 0.00 in0.0 mm
05:00 AM 41.4°F5.2°C 37.8°F3.2°C 87% 11.2 mph S18.0 kmh S 21.5 mph34.6 kmh 29.06 in984.1 mb 0.00 in0.0 mm 0.00 in0.0 mm 0.00 in0.0 mm
05:15 AM 41.2°F5.1°C 37.9°F3.3°C 88% 10.7 mph SSW17.2 kmh SSW 19.0 mph30.6 kmh 29.06 in984.1 mb 0.00 in0.0 mm 0.00 in0.0 mm 0.00 in0.0 mm
05:30 AM 40.8°F4.9°C 38.1°F3.4°C 90% 9.8 mph S15.8 kmh S 21.8 mph35.1 kmh 29.03 in983.1 mb 0.00 in0.0 mm 0.00 in0.0 mm 0.00 in0.0 mm
05:45 AM 40.6°F4.8°C 38.2°F3.4°C 91% 10.1 mph SSW16.3 kmh SSW 21.1 mph34.0 kmh 29.03 in983.1 mb 0.00 in0.0 mm 0.00 in0.0 mm 0.00 in0.0 mm
06:00 AM 40.6°F4.8°C 38.5°F3.6°C 92% 11.0 mph S17.7 kmh S 23.6 mph38.0 kmh 29.03 in983.1 mb 0.00 in0.0 mm 0.00 in0.0 mm 0.00 in0.0 mm
06:15 AM 40.6°F4.8°C 38.8°F3.8°C 93% 10.0 mph S16.1 kmh S 20.0 mph32.2 kmh 29.03 in983.1 mb 0.00 in0.0 mm 0.00 in0.0 mm 0.00 in0.0 mm
06:30 AM 40.6°F4.8°C 39.0°F3.9°C 94% 11.1 mph SSW17.9 kmh SSW 27.2 mph43.8 kmh 29.00 in982.1 mb 0.00 in0.0 mm 0.00 in0.0 mm 0.00 in0.0 mm
06:45 AM 40.6°F4.8°C 39.0°F3.9°C 94% 10.3 mph SW16.6 kmh SW 22.9 mph36.9 kmh 29.00 in982.1 mb 0.00 in0.0 mm 0.00 in0.0 mm 0.00 in0.0 mm
07:00 AM 40.6°F4.8°C 39.0°F3.9°C 94% 12.5 mph SW20.1 kmh SW 25.4 mph40.9 kmh 29.00 in982.1 mb 0.00 in0.0 mm 0.00 in0.0 mm 0.00 in0.0 mm
07:15 AM 40.8°F4.9°C 39.2°F4.0°C 94% 14.2 mph W22.9 kmh W 26.1 mph42.0 kmh 29.00 in982.1 mb 0.00 in0.0 mm 0.00 in0.0 mm 0.00 in0.0 mm
07:30 AM 40.8°F4.9°C 39.2°F4.0°C 94% 13.1 mph SW21.1 kmh SW 24.7 mph39.8 kmh 29.00 in982.1 mb 0.00 in0.0 mm 0.00 in0.0 mm 0.00 in0.0 mm
07:45 AM 41.0°F5.0°C 39.4°F4.1°C 94% 13.1 mph WSW21.1 kmh WSW 26.1 mph42.0 kmh 29.00 in982.1 mb 0.00 in0.0 mm 0.00 in0.0 mm 0.00 in0.0 mm
08:00 AM 41.0°F5.0°C 39.4°F4.1°C 94% 12.1 mph W19.5 kmh W 34.0 mph54.7 kmh 29.03 in983.1 mb 0.00 in0.0 mm 0.00 in0.0 mm 0.00 in0.0 mm
08:15 AM 40.8°F4.9°C 39.2°F4.0°C 94% 12.6 mph WSW20.3 kmh WSW 28.3 mph45.5 kmh 29.03 in983.1 mb 0.00 in0.0 mm 0.00 in0.0 mm 0.00 in0.0 mm
08:32 AM 40.8°F4.9°C 39.2°F4.0°C 94% 12.2 mph WSW19.6 kmh WSW 24.7 mph39.8 kmh 29.03 in983.1 mb 0.05 in1.3 mm 0.18 in4.6 mm 0.05 in1.3 mm
08:45 AM 41.0°F5.0°C 39.7°F4.3°C 95% 14.7 mph SW23.7 kmh SW 26.8 mph43.1 kmh 29.03 in983.1 mb 0.05 in1.3 mm 0.00 in0.0 mm 0.05 in1.3 mm
09:00 AM 41.0°F5.0°C 39.7°F4.3°C 95% 13.0 mph W20.9 kmh W 27.2 mph43.8 kmh 29.03 in983.1 mb 0.05 in1.3 mm 0.00 in0.0 mm 0.05 in1.3 mm
09:15 AM 41.2°F5.1°C 39.9°F4.4°C 95% 11.5 mph W18.5 kmh W 23.3 mph37.5 kmh 29.03 in983.1 mb 0.11 in2.8 mm 0.24 in6.1 mm 0.11 in2.8 mm
09:30 AM 41.2°F5.1°C 39.9°F4.4°C 95% 12.0 mph W19.3 kmh W 26.8 mph43.1 kmh 29.03 in983.1 mb 0.06 in1.5 mm 0.00 in0.0 mm 0.11 in2.8 mm
09:45 AM 41.2°F5.1°C 39.9°F4.4°C 95% 10.2 mph W16.4 kmh W 20.4 mph32.8 kmh 29.06 in984.1 mb 0.06 in1.5 mm 0.00 in0.0 mm 0.11 in2.8 mm
10:00 AM 41.0°F5.0°C 39.4°F4.1°C 94% 9.4 mph W15.1 kmh W 19.7 mph31.7 kmh 29.06 in984.1 mb 0.06 in1.5 mm 0.00 in0.0 mm 0.11 in2.8 mm
10:15 AM 40.8°F4.9°C 39.2°F4.0°C 94% 12.8 mph W20.6 kmh W 27.6 mph44.4 kmh 29.06 in984.1 mb 0.05 in1.3 mm 0.00 in0.0 mm 0.16 in4.1 mm
10:30 AM 40.6°F4.8°C 39.0°F3.9°C 94% 10.8 mph W17.4 kmh W 20.8 mph33.5 kmh 29.03 in983.1 mb 0.05 in1.3 mm 0.00 in0.0 mm 0.16 in4.1 mm
10:45 AM 40.6°F4.8°C 39.0°F3.9°C 94% 11.4 mph W18.3 kmh W 30.8 mph49.6 kmh 29.06 in984.1 mb 0.10 in2.5 mm 0.20 in5.1 mm 0.21 in5.3 mm
11:00 AM 40.3°F4.6°C 38.7°F3.7°C 94% 12.2 mph WNW19.6 kmh WNW 25.1 mph40.4 kmh 29.09 in985.1 mb 0.10 in2.5 mm 0.00 in0.0 mm 0.21 in5.3 mm
11:15 AM 39.9°F4.4°C 37.8°F3.2°C 92% 11.9 mph WNW19.2 kmh WNW 28.6 mph46.0 kmh 29.12 in986.1 mb 0.05 in1.3 mm 0.00 in0.0 mm 0.21 in5.3 mm
11:30 AM 39.6°F4.2°C 37.2°F2.9°C 91% 10.4 mph NW16.7 kmh NW 24.3 mph39.1 kmh 29.12 in986.1 mb 0.05 in1.3 mm 0.00 in0.0 mm 0.21 in5.3 mm
11:45 AM 39.4°F4.1°C 36.7°F2.6°C 90% 12.5 mph WNW20.1 kmh WNW 29.0 mph46.7 kmh 29.18 in988.1 mb 0.00 in0.0 mm 0.00 in0.0 mm 0.21 in5.3 mm
12:00 PM 39.6°F4.2°C 36.6°F2.6°C 89% 12.6 mph WNW20.3 kmh WNW 27.2 mph43.8 kmh 29.18 in988.1 mb 0.00 in0.0 mm 0.00 in0.0 mm 0.21 in5.3 mm
12:15 PM 38.8°F3.8°C 35.3°F1.8°C 87% 13.9 mph NW22.4 kmh NW 34.4 mph55.4 kmh 29.18 in988.1 mb 0.00 in0.0 mm 0.00 in0.0 mm 0.21 in5.3 mm
12:30 PM 38.8°F3.8°C 35.6°F2.0°C 88% 12.1 mph WNW19.5 kmh WNW 26.8 mph43.1 kmh 29.21 in989.2 mb 0.05 in1.3 mm 0.20 in5.1 mm 0.26 in6.6 mm
12:45 PM 39.0°F3.9°C 36.3°F2.4°C 90% 12.3 mph WNW19.8 kmh WNW 29.7 mph47.8 kmh 29.24 in990.2 mb 0.05 in1.3 mm 0.00 in0.0 mm 0.26 in6.6 mm
01:00 PM 39.4°F4.1°C 36.4°F2.4°C 89% 13.3 mph WNW21.4 kmh WNW 29.7 mph47.8 kmh 29.21 in989.2 mb 0.05 in1.3 mm 0.00 in0.0 mm 0.26 in6.6 mm
01:15 PM 39.0°F3.9°C 34.9°F1.6°C 85% 11.3 mph NW18.2 kmh NW 26.8 mph43.1 kmh 29.27 in991.2 mb 0.05 in1.3 mm 0.00 in0.0 mm 0.26 in6.6 mm
01:30 PM 39.9°F4.4°C 36.4°F2.4°C 87% 10.4 mph WNW16.7 kmh WNW 26.1 mph42.0 kmh 29.30 in992.2 mb 0.00 in0.0 mm 0.00 in0.0 mm 0.26 in6.6 mm
01:45 PM 40.5°F4.7°C 32.8°F0.4°C 74% 13.6 mph WNW21.9 kmh WNW 50.1 mph80.6 kmh 29.30 in992.2 mb 0.00 in0.0 mm 0.00 in0.0 mm 0.26 in6.6 mm
02:00 PM 41.4°F5.2°C 30.5°F-0.8°C 65% 16.8 mph WNW27.0 kmh WNW 36.1 mph58.1 kmh 29.27 in991.2 mb 0.00 in0.0 mm 0.00 in0.0 mm 0.26 in6.6 mm
02:15 PM 41.5°F5.3°C 29.5°F-1.4°C 62% 15.5 mph WNW24.9 kmh WNW 36.9 mph59.4 kmh 29.30 in992.2 mb 0.00 in0.0 mm 0.00 in0.0 mm 0.26 in6.6 mm
02:30 PM 41.2°F5.1°C 28.3°F-2.1°C 60% 14.3 mph WNW23.0 kmh WNW 36.9 mph59.4 kmh 29.33 in993.2 mb 0.00 in0.0 mm 0.00 in0.0 mm 0.26 in6.6 mm
02:45 PM 41.0°F5.0°C 26.9°F-2.8°C 57% 14.9 mph WNW24.0 kmh WNW 41.5 mph66.8 kmh 29.36 in994.2 mb 0.00 in0.0 mm 0.00 in0.0 mm 0.26 in6.6 mm
03:00 PM 41.4°F5.2°C 26.4°F-3.1°C 55% 13.3 mph WNW21.4 kmh WNW 28.3 mph45.5 kmh 29.36 in994.2 mb 0.00 in0.0 mm 0.00 in0.0 mm 0.26 in6.6 mm
03:15 PM 41.0°F5.0°C 26.5°F-3.1°C 56% 13.1 mph WNW21.1 kmh WNW 30.4 mph48.9 kmh 29.36 in994.2 mb 0.00 in0.0 mm 0.00 in0.0 mm 0.26 in6.6 mm
03:30 PM 40.5°F4.7°C 25.5°F-3.6°C 55% 13.1 mph WNW21.1 kmh WNW 27.6 mph44.4 kmh 29.39 in995.3 mb 0.00 in0.0 mm 0.00 in0.0 mm 0.26 in6.6 mm
03:45 PM 41.4°F5.2°C 28.9°F-1.7°C 61% 12.9 mph W20.8 kmh W 27.6 mph44.4 kmh 29.41 in995.9 mb 0.00 in0.0 mm 0.00 in0.0 mm 0.26 in6.6 mm
04:00 PM 42.1°F5.6°C 30.4°F-0.9°C 63% 12.1 mph W19.5 kmh W 28.3 mph45.5 kmh 29.45 in997.3 mb 0.00 in0.0 mm 0.00 in0.0 mm 0.26 in6.6 mm
04:15 PM 41.4°F5.2°C 29.3°F-1.5°C 62% 15.3 mph W24.6 kmh W 31.1 mph50.1 kmh 29.41 in995.9 mb 0.00 in0.0 mm 0.00 in0.0 mm 0.26 in6.6 mm
04:27 PM 41.0°F5.0°C 29.7°F-1.3°C 64% 12.5 mph W20.1 kmh W 16.8 mph27.0 kmh 29.45 in997.3 mb 0.00 in0.0 mm 0.00 in0.0 mm 0.26 in6.6 mm
04:28 PM 41.0°F5.0°C 29.7°F-1.3°C 64% 14.1 mph W22.7 kmh W 21.5 mph34.6 kmh 29.41 in995.9 mb 0.00 in0.0 mm 0.00 in0.0 mm 0.26 in6.6 mm
04:29 PM 41.0°F5.0°C 29.7°F-1.3°C 64% 14.1 mph W22.7 kmh W 21.5 mph34.6 kmh 29.41 in995.9 mb 0.00 in0.0 mm 0.00 in0.0 mm 0.26 in6.6 mm
04:30 PM 41.0°F5.0°C 29.7°F-1.3°C 64% 13.5 mph W21.7 kmh W 21.5 mph34.6 kmh 29.41 in995.9 mb 0.00 in0.0 mm 0.00 in0.0 mm 0.26 in6.6 mm
04:31 PM 40.8°F4.9°C 29.6°F-1.3°C 64% 14.0 mph W22.5 kmh W 21.5 mph34.6 kmh 29.41 in995.9 mb 0.00 in0.0 mm 0.00 in0.0 mm 0.26 in6.6 mm
04:32 PM 40.8°F4.9°C 29.6°F-1.3°C 64% 13.4 mph W21.6 kmh W 21.5 mph34.6 kmh 29.41 in995.9 mb 0.00 in0.0 mm 0.00 in0.0 mm 0.26 in6.6 mm
04:45 PM 40.1°F4.5°C 29.3°F-1.5°C 65% 16.8 mph W27.0 kmh W 41.2 mph66.3 kmh 29.45 in997.3 mb 0.00 in0.0 mm 0.00 in0.0 mm 0.26 in6.6 mm
05:00 PM 39.7°F4.3°C 29.3°F-1.5°C 66% 14.6 mph W23.5 kmh W 35.8 mph57.6 kmh 29.45 in997.3 mb 0.00 in0.0 mm 0.00 in0.0 mm 0.26 in6.6 mm
05:15 PM 39.4°F4.1°C 29.3°F-1.5°C 67% 13.4 mph W21.6 kmh W 27.9 mph44.9 kmh 29.47 in998.0 mb 0.00 in0.0 mm 0.00 in0.0 mm 0.26 in6.6 mm
05:30 PM 39.0°F3.9°C 29.0°F-1.7°C 67% 15.3 mph W24.6 kmh W 35.4 mph57.0 kmh 29.47 in998.0 mb 0.00 in0.0 mm 0.00 in0.0 mm 0.26 in6.6 mm
05:45 PM 38.8°F3.8°C 28.1°F-2.2°C 65% 16.5 mph W26.6 kmh W 36.5 mph58.7 kmh 29.47 in998.0 mb 0.00 in0.0 mm 0.00 in0.0 mm 0.26 in6.6 mm
06:00 PM 38.5°F3.6°C 28.1°F-2.2°C 66% 13.2 mph W21.2 kmh W 46.2 mph74.4 kmh 29.47 in998.0 mb 0.00 in0.0 mm 0.00 in0.0 mm 0.26 in6.6 mm
06:15 PM 38.3°F3.5°C 28.7°F-1.8°C 68% 13.3 mph W21.4 kmh W 30.1 mph48.4 kmh 29.47 in998.0 mb 0.00 in0.0 mm 0.00 in0.0 mm 0.26 in6.6 mm
06:30 PM 38.3°F3.5°C 29.0°F-1.7°C 69% 14.0 mph W22.5 kmh W 35.1 mph56.5 kmh 29.50 in999.0 mb 0.00 in0.0 mm 0.00 in0.0 mm 0.26 in6.6 mm
06:45 PM 38.1°F3.4°C 28.5°F-1.9°C 68% 13.8 mph W22.2 kmh W 28.3 mph45.5 kmh 29.53 in1000.0 mb 0.00 in0.0 mm 0.00 in0.0 mm 0.26 in6.6 mm
07:00 PM 38.1°F3.4°C 27.8°F-2.3°C 66% 13.9 mph W22.4 kmh W 26.5 mph42.6 kmh 29.56 in1001.0 mb 0.00 in0.0 mm 0.00 in0.0 mm 0.26 in6.6 mm
07:15 PM 38.1°F3.4°C 27.4°F-2.6°C 65% 13.2 mph W21.2 kmh W 35.4 mph57.0 kmh 29.53 in1000.0 mb 0.00 in0.0 mm 0.00 in0.0 mm 0.26 in6.6 mm
07:30 PM 37.9°F3.3°C 28.0°F-2.2°C 67% 12.9 mph W20.8 kmh W 27.6 mph44.4 kmh 29.53 in1000.0 mb 0.00 in0.0 mm 0.00 in0.0 mm 0.26 in6.6 mm
07:45 PM 37.9°F3.3°C 28.0°F-2.2°C 67% 13.5 mph W21.7 kmh W 28.3 mph45.5 kmh 29.56 in1001.0 mb 0.00 in0.0 mm 0.00 in0.0 mm 0.26 in6.6 mm
08:00 PM 37.8°F3.2°C 27.8°F-2.3°C 67% 11.7 mph W18.8 kmh W 20.8 mph33.5 kmh 29.56 in1001.0 mb 0.00 in0.0 mm 0.00 in0.0 mm 0.26 in6.6 mm
08:15 PM 37.6°F3.1°C 27.6°F-2.4°C 67% 11.5 mph W18.5 kmh W 24.7 mph39.8 kmh 29.59 in1002.0 mb 0.00 in0.0 mm 0.00 in0.0 mm 0.26 in6.6 mm
08:30 PM 37.4°F3.0°C 27.8°F-2.3°C 68% 10.3 mph W16.6 kmh W 23.3 mph37.5 kmh 29.59 in1002.0 mb 0.00 in0.0 mm 0.00 in0.0 mm 0.26 in6.6 mm
08:45 PM 37.4°F3.0°C 28.5°F-1.9°C 70% 11.0 mph W17.7 kmh W 20.0 mph32.2 kmh 29.56 in1001.0 mb 0.00 in0.0 mm 0.00 in0.0 mm 0.26 in6.6 mm
09:00 PM 37.4°F3.0°C 29.5°F-1.4°C 73% 10.1 mph W16.3 kmh W 23.3 mph37.5 kmh 29.56 in1001.0 mb 0.00 in0.0 mm 0.00 in0.0 mm 0.26 in6.6 mm
09:15 PM 37.4°F3.0°C 30.2°F-1.0°C 75% 8.8 mph W14.2 kmh W 16.5 mph26.6 kmh 29.59 in1002.0 mb 0.00 in0.0 mm 0.00 in0.0 mm 0.26 in6.6 mm
09:30 PM 37.2°F2.9°C 30.7°F-0.7°C 77% 9.9 mph W15.9 kmh W 23.6 mph38.0 kmh 29.59 in1002.0 mb 0.00 in0.0 mm 0.00 in0.0 mm 0.26 in6.6 mm
09:45 PM 37.4°F3.0°C 31.2°F-0.4°C 78% 10.3 mph W16.6 kmh W 25.8 mph41.5 kmh 29.62 in1003.0 mb 0.00 in0.0 mm 0.00 in0.0 mm 0.26 in6.6 mm
10:00 PM 37.0°F2.8°C 31.1°F-0.5°C 79% 9.5 mph W15.3 kmh W 19.3 mph31.1 kmh 29.62 in1003.0 mb 0.00 in0.0 mm 0.00 in0.0 mm 0.26 in6.6 mm
10:15 PM 37.0°F2.8°C 31.4°F-0.3°C 80% 8.6 mph W13.8 kmh W 17.2 mph27.7 kmh 29.62 in1003.0 mb 0.00 in0.0 mm 0.00 in0.0 mm 0.26 in6.6 mm
10:30 PM 37.2°F2.9°C 31.6°F-0.2°C 80% 8.2 mph W13.2 kmh W 19.0 mph30.6 kmh 29.65 in1004.1 mb 0.00 in0.0 mm 0.00 in0.0 mm 0.26 in6.6 mm
10:45 PM 37.6°F3.1°C 32.0°F0.0°C 80% 6.8 mph W10.9 kmh W 14.0 mph22.5 kmh 29.65 in1004.1 mb 0.00 in0.0 mm 0.00 in0.0 mm 0.26 in6.6 mm
11:00 PM 37.6°F3.1°C 32.3°F0.2°C 81% 7.2 mph W11.6 kmh W 13.6 mph21.9 kmh 29.65 in1004.1 mb 0.00 in0.0 mm 0.00 in0.0 mm 0.26 in6.6 mm
11:15 PM 37.4°F3.0°C 32.1°F0.1°C 81% 7.7 mph W12.4 kmh W 16.5 mph26.6 kmh 29.65 in1004.1 mb 0.00 in0.0 mm 0.00 in0.0 mm 0.26 in6.6 mm
11:30 PM 37.2°F2.9°C 31.9°F-0.1°C 81% 8.1 mph W13.0 kmh W 15.4 mph24.8 kmh 29.62 in1003.0 mb 0.00 in0.0 mm 0.00 in0.0 mm 0.26 in6.6 mm
11:45 PM 37.2°F2.9°C 32.2°F0.1°C 82% 8.7 mph W14.0 kmh W 19.0 mph30.6 kmh 29.62 in1003.0 mb 0.00 in0.0 mm 0.00 in0.0 mm 0.26 in6.6 mm